Time;durP1;ratioP1;P1;durP2;ratioP2;P2;SDS_P1;SDS_P2;PMS_P1;PMS_P2;Temp;Humidity;BMP_temperature;BMP_pressure;BME280_temperature;BME280_humidity;BME280_pressure;Samples;Min_cycle;Max_cycle;Signal;HPM_P1;HPM_P2
2023/02/25 00:00:20;;;;;;;;;;;;;;;;;;6251448;22;19919;-96
2023/02/25 00:03:07;;;;;;;;;;;;;;;;;;6279100;22;19916;-95
2023/02/25 00:05:35;;;;;;;;;;;;;;;;;;6276204;22;20325;-96
2023/02/25 00:08:01;;;;;;;;;;;;;;;;;;6251608;22;19982;-95
2023/02/25 00:10:27;;;;;;;;;;;;;;;;;;6251662;22;19926;-95
2023/02/25 00:12:53;;;;;;;;;;;;;;;;;;6276555;22;19927;-95
2023/02/25 00:15:39;;;;;;;;;;;;;;;;;;6277891;22;19915;-95
2023/02/25 00:18:26;;;;;;;;;;;;;;;;;;6278330;22;19922;-95
2023/02/25 00:20:55;;;;;;;;;;;;;;;;;;6277210;22;19953;-95
2023/02/25 00:23:32;;;;;;;;;;;;;;;;;;6251237;22;19962;-96
2023/02/25 00:26:00;;;;;;;;;;;;;;;;;;6291618;22;20102;-95
2023/02/25 00:31:15;;;;;;;;;;;;;;;;;;6236420;23;19919;-94
2023/02/25 00:39:23;;;;;;;;;;;;;;;;;;6206194;23;19915;-95
2023/02/25 00:41:51;;;;;;;;;;;;;;;;;;6248222;23;20388;-96
2023/02/25 00:44:18;;;;;;;;;;;;;;;;;;6221541;23;19915;-95
2023/02/25 00:46:51;;;;;;;;;;;;;;;;;;6248076;23;19986;-95
2023/02/25 00:49:25;;;;;;;;;;;;;;;;;;6221057;23;19951;-95
2023/02/25 00:52:02;;;;;;;;;;;;;;;;;;;;;
2023/02/25 01:06:37;;;;;;;;;;;;;;;;;;6152838;23;20059;-96
2023/02/25 01:09:14;;;;;;;;;;;;;;;;;;;;;
2023/02/25 01:11:40;;;;;;;;;;;;;;;;;;6170326;23;19922;-95
2023/02/25 01:14:08;;;;;;;;;;;;;;;;;;6222335;23;19920;-96
2023/02/25 01:16:34;;;;;;;;;;;;;;;;;;6221325;23;19923;-95
2023/02/25 01:19:18;;;;;;;;;;;;;;;;;;6221391;23;19915;-94
2023/02/25 01:21:53;;;;;;;;;;;;;;;;;;6248185;23;19916;-96
2023/02/25 01:24:22;;;;;;;;;;;;;;;;;;6197680;23;19951;-96
2023/02/25 01:29:38;;;;;;;;;;;;;;;;;;6213101;22;19926;-93
2023/02/25 01:32:04;;;;;;;;;;;;;;;;;;6279042;22;19915;-94
2023/02/25 01:34:30;;;;;;;;;;;;;;;;;;6279484;22;20012;-96
2023/02/25 01:37:03;;;;;;;;;;;;;;;;;;6279021;22;19921;-96
2023/02/25 01:39:35;;;;;;;;;;;;;;;;;;6278938;22;19915;-96
2023/02/25 01:42:01;;;;;;;;;;;;;;;;;;6278442;22;19922;-94
2023/02/25 01:44:27;;;;;;;;;;;;;;;;;;6260135;22;19946;-92
2023/02/25 01:47:00;;;;;;;;;;;;;;;;;;6283829;22;19996;-96
2023/02/25 01:49:32;;;;;;;;;;;;;;;;;;6252704;22;19990;-95
2023/02/25 01:52:03;;;;;;;;;;;;;;;;;;6253643;22;19916;-95
2023/02/25 01:54:50;;;;;;;;;;;;;;;;;;6280024;22;19926;-95
2023/02/25 02:00:10;;;;;;;;;;;;;;;;;;6178961;22;19915;-95
2023/02/25 02:05:25;;;;;;;;;;;;;;;;;;6258724;22;19915;-95
2023/02/25 02:07:51;;;;;;;;;;;;;;;;;;6278975;22;19984;-95
2023/02/25 02:10:18;;;;;;;;;;;;;;;;;;6253740;22;20348;-96
2023/02/25 02:12:44;;;;;;;;;;;;;;;;;;6280030;22;19976;-96
2023/02/25 02:15:12;;;;;;;;;;;;;;;;;;6279079;22;20004;-96
2023/02/25 02:17:42;;;;;;;;;;;;;;;;;;6252689;22;20252;-94
2023/02/25 02:20:29;;;;;;;;;;;;;;;;;;6252903;22;19915;-96
2023/02/25 02:23:02;;;;;;;;;;;;;;;;;;6279286;22;20325;-96
2023/02/25 02:25:31;;;;;;;;;;;;;;;;;;6253336;22;20325;-96
2023/02/25 02:28:04;;;;;;;;;;;;;;;;;;6282149;22;19973;-95
2023/02/25 02:33:28;;;;;;;;;;;;;;;;;;6265689;22;19923;-95
2023/02/25 02:36:06;;;;;;;;;;;;;;;;;;6280228;22;19920;-96
2023/02/25 02:41:22;;;;;;;;;;;;;;;;;;6261252;22;19915;-94
2023/02/25 02:43:48;;;;;;;;;;;;;;;;;;6279006;22;19915;-95
2023/02/25 04:16:06;;;;;;;;;;;;;;;;;;6310681;22;19947;-94
2023/02/25 04:18:54;;;;;;;;;;;;;;;;;;6283795;22;19915;-93
2023/02/25 04:24:08;;;;;;;;;;;;;;;;;;6263310;22;19929;-95
2023/02/25 04:26:41;;;;;;;;;;;;;;;;;;6311441;22;19926;-96
2023/02/25 04:29:07;;;;;;;;;;;;;;;;;;6309709;22;19915;-92
2023/02/25 04:31:33;;;;;;;;;;;;;;;;;;6258248;22;19921;-95
2023/02/25 04:34:01;;;;;;;;;;;;;;;;;;6258081;22;19918;-94
2023/02/25 04:36:27;;;;;;;;;;;;;;;;;;6283837;22;19915;-95
2023/02/25 04:39:04;;;;;;;;;;;;;;;;;;6284094;22;19922;-96
2023/02/25 04:41:30;;;;;;;;;;;;;;;;;;6311223;22;19918;-94
2023/02/25 04:44:03;;;;;;;;;;;;;;;;;;6309102;22;19923;-92
2023/02/25 04:46:35;;;;;;;;;;;;;;;;;;6255890;22;19915;-96
2023/02/25 04:49:10;;;;;;;;;;;;;;;;;;6282212;22;20177;-95
2023/02/25 04:51:36;;;;;;;;;;;;;;;;;;6300038;22;19954;-92
2023/02/25 04:54:07;;;;;;;;;;;;;;;;;;6288864;22;19919;-95
2023/02/25 04:59:31;;;;;;;;;;;;;;;;;;6255795;22;20001;-96
2023/02/25 05:02:05;;;;;;;;;;;;;;;;;;6312368;22;19947;-95
2023/02/25 05:04:31;;;;;;;;;;;;;;;;;;6285296;22;19923;-95
2023/02/25 05:06:59;;;;;;;;;;;;;;;;;;6285248;22;19915;-94
2023/02/25 05:09:35;;;;;;;;;;;;;;;;;;;;;
2023/02/25 05:12:16;;;;;;;;;;;;;;;;;;6284984;22;19915;-96
2023/02/25 05:14:52;;;;;;;;;;;;;;;;;;6259489;22;19987;-96
2023/02/25 05:17:18;;;;;;;;;;;;;;;;;;6284563;22;19915;-95
2023/02/25 05:19:53;;;;;;;;;;;;;;;;;;6284736;22;20359;-95
2023/02/25 05:23:11;;;;;;;;;;;;;;;;;;;;;
2023/02/25 05:31:16;;;;;;;;;;;;;;;;;;6300555;22;19918;-95
2023/02/25 05:33:55;;;;;;;;;;;;;;;;;;;;;
2023/02/25 05:39:30;;;;;;;;;;;;;;;;;;;;;
2023/02/25 05:42:10;;;;;;;;;;;;;;;;;;;;;
2023/02/25 05:44:53;;;;;;;;;;;;;;;;;;6284627;22;19915;-96
2023/02/25 05:47:43;;;;;;;;;;;;;;;;;;6284266;22;19953;-93
2023/02/25 05:52:54;;;;;;;;;;;;;;;;;;6262572;22;19953;-95
2023/02/25 05:55:28;;;;;;;;;;;;;;;;;;6310803;22;19965;-95
2023/02/25 05:58:15;;;;;;;;;;;;;;;;;;6284122;22;20028;-94
2023/02/25 06:00:57;;;;;;;;;;;;;;;;;;6309902;22;19969;-94
2023/02/25 06:03:44;;;;;;;;;;;;;;;;;;6258074;22;19922;-94
2023/02/25 06:06:20;;;;;;;;;;;;;;;;;;6309292;22;19915;-95
2023/02/25 06:09:09;;;;;;;;;;;;;;;;;;6257834;22;19954;-93
2023/02/25 06:11:36;;;;;;;;;;;;;;;;;;6308781;22;20024;-94
2023/02/25 06:14:11;;;;;;;;;;;;;;;;;;6283049;22;19934;-93
2023/02/25 06:16:50;;;;;;;;;;;;;;;;;;;;;
2023/02/25 06:19:26;;;;;;;;;;;;;;;;;;6282471;22;20275;-92
2023/02/25 06:22:12;;;;;;;;;;;;;;;;;;;;;
2023/02/25 06:24:49;;;;;;;;;;;;;;;;;;6284335;22;19938;-93
2023/02/25 06:30:04;;;;;;;;;;;;;;;;;;6294489;22;19990;-96
2023/02/25 06:32:48;;;;;;;;;;;;;;;;;;6259148;22;19919;-96
2023/02/25 06:35:17;;;;;;;;;;;;;;;;;;6311447;22;20002;-94
2023/02/25 06:37:43;;;;;;;;;;;;;;;;;;6316666;22;19915;-93
2023/02/25 06:42:58;;;;;;;;;;;;;;;;;;6263003;22;19938;-95
2023/02/25 06:45:29;;;;;;;;;;;;;;;;;;6260716;22;20313;-95
2023/02/25 06:48:06;;;;;;;;;;;;;;;;;;6285131;22;19945;-94
2023/02/25 08:13:43;;;;;;;;;;;;;;;;;;6103713;23;20355;-94
2023/02/25 08:16:09;;;;;;;;;;;;;;;;;;6136100;23;19921;-93
2023/02/25 08:18:37;;;;;;;;;;;;;;;;;;6209076;22;19961;-93
2023/02/25 08:23:55;;;;;;;;;;;;;;;;;;6235934;22;20252;-93
2023/02/25 08:26:21;;;;;;;;;;;;;;;;;;6227292;22;19915;-94
2023/02/25 08:28:50;;;;;;;;;;;;;;;;;;6255378;22;19999;-95
2023/02/25 08:31:16;;;;;;;;;;;;;;;;;;6252002;22;20375;-93
2023/02/25 08:36:59;;;;;;;;;;;;;;;;;;6283965;22;19946;-93
2023/02/25 08:39:50;;;;;;;;;;;;;;;;;;;;;
2023/02/25 08:42:42;;;;;;;;;;;;;;;;;;6283273;22;19915;-94
2023/02/25 08:45:18;;;;;;;;;;;;;;;;;;;;;
2023/02/25 08:47:45;;;;;;;;;;;;;;;;;;6253302;22;19915;-93
2023/02/25 08:50:11;;;;;;;;;;;;;;;;;;6280270;22;19916;-94
2023/02/25 08:52:37;;;;;;;;;;;;;;;;;;6253000;22;19915;-92
2023/02/25 08:55:06;;;;;;;;;;;;;;;;;;6228604;22;19926;-93
2023/02/25 08:57:32;;;;;;;;;;;;;;;;;;6255528;22;20039;-94
2023/02/25 09:00:01;;;;;;;;;;;;;;;;;;6256659;22;19922;-94
2023/02/25 09:05:17;;;;;;;;;;;;;;;;;;6237325;22;19916;-93
2023/02/25 09:07:54;;;;;;;;;;;;;;;;;;6230920;22;20016;-95
2023/02/25 09:16:18;;;;;;;;;;;;;;;;;;6272771;22;19939;-95
2023/02/25 09:19:22;;;;;;;;;;;;;;;;;;;;;
2023/02/25 09:29:46;;;;;;;;;;;;;;;;;;6300332;22;19919;-92
2023/02/25 09:32:37;;;;;;;;;;;;;;;;;;;;;
2023/02/25 09:35:16;;;;;;;;;;;;;;;;;;6313227;22;19919;-93
2023/02/25 09:40:18;;;;;;;;;;;;;;;;;;6280791;22;19919;-95
2023/02/25 10:13:56;;;;;;;;;;;;;;;;;;6285883;22;19998;-93
2023/02/25 10:16:23;;;;;;;;;;;;;;;;;;6268518;22;19994;-94
2023/02/25 10:19:07;;;;;;;;;;;;;;;;;;6292096;22;19994;-95
2023/02/25 10:24:56;;;;;;;;;;;;;;;;;;6146852;23;19991;-96
2023/02/25 10:27:23;;;;;;;;;;;;;;;;;;6141343;23;19923;-92
2023/02/25 10:33:09;;;;;;;;;;;;;;;;;;6167309;23;20345;-93
2023/02/25 10:35:38;;;;;;;;;;;;;;;;;;6165512;23;19916;-96
2023/02/25 10:38:11;;;;;;;;;;;;;;;;;;6165818;23;19917;-95
2023/02/25 10:40:37;;;;;;;;;;;;;;;;;;6183217;22;19961;-94
2023/02/25 10:43:03;;;;;;;;;;;;;;;;;;6287247;22;19915;-92
2023/02/25 10:45:29;;;;;;;;;;;;;;;;;;6257310;22;19922;-92
2023/02/25 10:47:55;;;;;;;;;;;;;;;;;;6282323;22;19915;-92
2023/02/25 10:50:21;;;;;;;;;;;;;;;;;;6256681;22;19922;-92
2023/02/25 10:52:47;;;;;;;;;;;;;;;;;;6257196;22;19980;-95
2023/02/25 10:55:13;;;;;;;;;;;;;;;;;;6257726;22;19989;-95
2023/02/25 10:57:39;;;;;;;;;;;;;;;;;;6257217;22;20002;-94
2023/02/25 11:00:05;;;;;;;;;;;;;;;;;;6256307;22;19953;-93
2023/02/25 11:02:31;;;;;;;;;;;;;;;;;;6282539;22;19960;-94
2023/02/25 11:04:57;;;;;;;;;;;;;;;;;;6309869;22;19919;-94
2023/02/25 11:07:23;;;;;;;;;;;;;;;;;;6309963;22;19915;-94
2023/02/25 11:09:49;;;;;;;;;;;;;;;;;;6281295;22;19922;-94
2023/02/25 11:12:22;;;;;;;;;;;;;;;;;;6282430;22;19925;-93
2023/02/25 11:14:48;;;;;;;;;;;;;;;;;;6256552;22;19926;-92
2023/02/25 11:17:14;;;;;;;;;;;;;;;;;;6287047;22;19915;-93
2023/02/25 11:19:40;;;;;;;;;;;;;;;;;;6282123;22;19967;-93
2023/02/25 11:22:06;;;;;;;;;;;;;;;;;;6285698;22;19922;-95
2023/02/25 11:24:32;;;;;;;;;;;;;;;;;;6262446;22;19915;-94
2023/02/25 11:26:58;;;;;;;;;;;;;;;;;;6287666;22;19915;-95
2023/02/25 11:29:24;;;;;;;;;;;;;;;;;;6314185;22;20217;-94
2023/02/25 11:31:50;;;;;;;;;;;;;;;;;;6287090;22;19922;-93
2023/02/25 11:34:16;;;;;;;;;;;;;;;;;;6283881;22;19962;-95
2023/02/25 11:36:42;;;;;;;;;;;;;;;;;;6257397;22;19922;-94
2023/02/25 11:39:08;;;;;;;;;;;;;;;;;;6283362;22;20248;-92
2023/02/25 11:41:34;;;;;;;;;;;;;;;;;;6257447;22;19922;-94
2023/02/25 11:44:03;;;;;;;;;;;;;;;;;;6256850;22;19922;-92
2023/02/25 11:46:31;;;;;;;;;;;;;;;;;;6256422;22;19915;-92
2023/02/25 11:49:00;;;;;;;;;;;;;;;;;;6256711;22;19981;-93
2023/02/25 11:51:26;;;;;;;;;;;;;;;;;;6309538;22;19919;-93
2023/02/25 11:53:52;;;;;;;;;;;;;;;;;;6257029;22;19919;-94
2023/02/25 11:56:18;;;;;;;;;;;;;;;;;;6282416;22;19922;-92
2023/02/25 11:58:44;;;;;;;;;;;;;;;;;;6283258;22;19953;-92
2023/02/25 12:01:10;;;;;;;;;;;;;;;;;;6283861;22;19915;-93
2023/02/25 12:03:36;;;;;;;;;;;;;;;;;;6283882;22;19989;-94
2023/02/25 12:06:02;;;;;;;;;;;;;;;;;;6284888;22;19915;-93
2023/02/25 12:08:31;;;;;;;;;;;;;;;;;;6284340;22;19945;-91
2023/02/25 12:10:57;;;;;;;;;;;;;;;;;;6278584;22;19906;-91
2023/02/25 12:13:26;;;;;;;;;;;;;;;;;;6279643;22;19926;-91
2023/02/25 12:15:52;;;;;;;;;;;;;;;;;;6274937;22;19918;-95
2023/02/25 12:18:18;;;;;;;;;;;;;;;;;;6264349;22;19913;-93
2023/02/25 12:20:44;;;;;;;;;;;;;;;;;;6259516;22;19914;-94
2023/02/25 12:23:37;;;;;;;;;;;;;;;;;;6287901;22;19922;-95
2023/02/25 12:26:14;;;;;;;;;;;;;;;;;;6285861;22;19907;-96
2023/02/25 12:28:44;;;;;;;;;;;;;;;;;;6262838;22;19903;-96
2023/02/25 12:31:11;;;;;;;;;;;;;;;;;;6256892;22;19915;-93
2023/02/25 12:33:37;;;;;;;;;;;;;;;;;;6256303;22;20164;-94
2023/02/25 12:36:03;;;;;;;;;;;;;;;;;;6255916;22;20312;-94
2023/02/25 12:38:29;;;;;;;;;;;;;;;;;;6255468;22;19926;-92
2023/02/25 12:40:57;;;;;;;;;;;;;;;;;;6255491;22;19915;-94
2023/02/25 12:43:23;;;;;;;;;;;;;;;;;;6256504;22;19915;-93
2023/02/25 12:45:49;;;;;;;;;;;;;;;;;;6282162;22;19915;-94
2023/02/25 12:48:16;;;;;;;;;;;;;;;;;;6256654;22;19915;-93
2023/02/25 12:50:47;;;;;;;;;;;;;;;;;;6256857;22;19930;-94
2023/02/25 12:53:14;;;;;;;;;;;;;;;;;;6308958;22;19915;-93
2023/02/25 12:55:41;;;;;;;;;;;;;;;;;;6284225;22;19970;-95
2023/02/25 12:58:14;;;;;;;;;;;;;;;;;;6285068;22;19973;-94
2023/02/25 13:00:46;;;;;;;;;;;;;;;;;;6259030;22;19915;-95
2023/02/25 13:03:14;;;;;;;;;;;;;;;;;;6258931;22;19915;-92
2023/02/25 13:05:43;;;;;;;;;;;;;;;;;;6257488;22;19990;-94
2023/02/25 13:08:12;;;;;;;;;;;;;;;;;;6282876;22;19921;-91
2023/02/25 13:10:38;;;;;;;;;;;;;;;;;;6280555;22;19914;-90
2023/02/25 13:13:04;;;;;;;;;;;;;;;;;;6254982;22;20376;-92
2023/02/25 13:15:30;;;;;;;;;;;;;;;;;;6255784;22;19923;-93
2023/02/25 13:17:56;;;;;;;;;;;;;;;;;;6255698;22;20393;-93
2023/02/25 13:20:22;;;;;;;;;;;;;;;;;;6282855;22;19989;-92
2023/02/25 13:22:47;;;;;;;;;;;;;;;;;;6310461;22;19915;-93
2023/02/25 13:25:14;;;;;;;;;;;;;;;;;;6257111;22;19915;-93
2023/02/25 13:27:42;;;;;;;;;;;;;;;;;;6282996;22;20324;-93
2023/02/25 13:30:11;;;;;;;;;;;;;;;;;;6283531;22;20083;-96
2023/02/25 13:32:37;;;;;;;;;;;;;;;;;;6284532;22;19989;-92
2023/02/25 13:35:03;;;;;;;;;;;;;;;;;;6257026;22;20348;-94
2023/02/25 13:37:36;;;;;;;;;;;;;;;;;;6284162;22;19919;-94
2023/02/25 13:40:04;;;;;;;;;;;;;;;;;;6258488;22;19915;-93
2023/02/25 13:42:30;;;;;;;;;;;;;;;;;;6257068;22;19915;-94
2023/02/25 13:44:56;;;;;;;;;;;;;;;;;;6257572;22;19914;-91
2023/02/25 13:47:22;;;;;;;;;;;;;;;;;;6256465;22;19922;-93
2023/02/25 13:49:48;;;;;;;;;;;;;;;;;;6310186;22;19937;-93
2023/02/25 13:52:17;;;;;;;;;;;;;;;;;;6287375;22;20309;-92
2023/02/25 13:54:43;;;;;;;;;;;;;;;;;;6263507;22;19915;-94
2023/02/25 13:57:09;;;;;;;;;;;;;;;;;;6257305;22;20221;-94
2023/02/25 13:59:35;;;;;;;;;;;;;;;;;;6282728;22;19981;-93
2023/02/25 14:02:00;;;;;;;;;;;;;;;;;;6282560;22;20340;-93
2023/02/25 14:04:26;;;;;;;;;;;;;;;;;;6257222;22;19950;-94
2023/02/25 14:06:52;;;;;;;;;;;;;;;;;;6256951;22;19923;-93
2023/02/25 14:09:18;;;;;;;;;;;;;;;;;;6256053;22;20397;-94
2023/02/25 14:11:44;;;;;;;;;;;;;;;;;;6282555;22;19915;-92
2023/02/25 14:14:13;;;;;;;;;;;;;;;;;;6282777;22;19931;-95
2023/02/25 14:16:39;;;;;;;;;;;;;;;;;;6258916;22;19922;-94
2023/02/25 14:19:05;;;;;;;;;;;;;;;;;;6257761;22;19915;-93
2023/02/25 14:21:34;;;;;;;;;;;;;;;;;;6283391;22;19915;-93
2023/02/25 14:24:00;;;;;;;;;;;;;;;;;;6282137;22;19986;-94
2023/02/25 14:26:26;;;;;;;;;;;;;;;;;;6283207;22;19915;-94
2023/02/25 14:28:54;;;;;;;;;;;;;;;;;;6257226;22;20024;-96
2023/02/25 14:31:21;;;;;;;;;;;;;;;;;;6256710;22;19922;-92
2023/02/25 14:33:47;;;;;;;;;;;;;;;;;;6256721;22;19966;-94
2023/02/25 14:36:15;;;;;;;;;;;;;;;;;;6257088;22;19969;-92
2023/02/25 14:38:41;;;;;;;;;;;;;;;;;;6255913;22;20253;-93
2023/02/25 14:41:07;;;;;;;;;;;;;;;;;;6257184;22;19919;-94
2023/02/25 14:43:33;;;;;;;;;;;;;;;;;;6282825;22;20328;-93
2023/02/25 14:45:59;;;;;;;;;;;;;;;;;;6283076;22;19915;-94
2023/02/25 14:48:25;;;;;;;;;;;;;;;;;;6257128;22;19919;-93
2023/02/25 14:50:51;;;;;;;;;;;;;;;;;;6282133;22;19980;-93
2023/02/25 14:53:17;;;;;;;;;;;;;;;;;;6282667;22;19929;-94
2023/02/25 14:55:43;;;;;;;;;;;;;;;;;;6257024;22;19922;-95
2023/02/25 14:58:09;;;;;;;;;;;;;;;;;;6283093;22;19915;-95
2023/02/25 15:00:56;;;;;;;;;;;;;;;;;;6284024;22;20008;-96
2023/02/25 15:03:21;;;;;;;;;;;;;;;;;;6282018;22;19919;-91
2023/02/25 15:06:08;;;;;;;;;;;;;;;;;;6285691;22;19964;-92
2023/02/25 15:08:33;;;;;;;;;;;;;;;;;;6282119;22;19968;-90
2023/02/25 15:10:59;;;;;;;;;;;;;;;;;;6281719;22;19959;-91
2023/02/25 15:13:25;;;;;;;;;;;;;;;;;;6256449;22;19926;-90
2023/02/25 15:15:51;;;;;;;;;;;;;;;;;;6281373;22;19915;-90
2023/02/25 15:18:17;;;;;;;;;;;;;;;;;;6255365;22;19969;-89
2023/02/25 15:20:43;;;;;;;;;;;;;;;;;;6254880;22;19922;-91
2023/02/25 15:23:10;;;;;;;;;;;;;;;;;;6308267;22;19915;-92
2023/02/25 15:25:36;;;;;;;;;;;;;;;;;;6256066;22;19945;-91
2023/02/25 15:28:02;;;;;;;;;;;;;;;;;;6281574;22;20067;-90
2023/02/25 15:30:28;;;;;;;;;;;;;;;;;;6308398;22;20089;-90
2023/02/25 15:32:54;;;;;;;;;;;;;;;;;;6281321;22;19915;-91
2023/02/25 15:35:21;;;;;;;;;;;;;;;;;;6256028;22;19973;-91
2023/02/25 15:37:47;;;;;;;;;;;;;;;;;;6255565;22;19926;-90
2023/02/25 15:40:13;;;;;;;;;;;;;;;;;;6280834;22;19914;-90
2023/02/25 15:42:41;;;;;;;;;;;;;;;;;;6253647;22;23199;-91
2023/02/25 15:45:07;;;;;;;;;;;;;;;;;;6255495;22;19919;-90
2023/02/25 15:47:35;;;;;;;;;;;;;;;;;;6256820;22;19915;-90
2023/02/25 15:50:01;;;;;;;;;;;;;;;;;;6281651;22;19922;-91
2023/02/25 15:52:27;;;;;;;;;;;;;;;;;;6254773;22;20245;-90
2023/02/25 15:54:53;;;;;;;;;;;;;;;;;;6281339;22;19923;-93
2023/02/25 15:57:19;;;;;;;;;;;;;;;;;;6257018;22;19915;-94
2023/02/25 15:59:45;;;;;;;;;;;;;;;;;;6283498;22;19922;-95
2023/02/25 16:02:11;;;;;;;;;;;;;;;;;;6281988;22;19915;-90
2023/02/25 16:04:55;;;;;;;;;;;;;;;;;;6256156;22;19922;-95
2023/02/25 16:07:21;;;;;;;;;;;;;;;;;;6282521;22;19922;-92
2023/02/25 16:09:46;;;;;;;;;;;;;;;;;;6256902;22;19994;-93
2023/02/25 16:14:59;;;;;;;;;;;;;;;;;;6247969;22;20221;-95
2023/02/25 16:17:25;;;;;;;;;;;;;;;;;;6262006;22;19922;-93
2023/02/25 16:19:52;;;;;;;;;;;;;;;;;;6257818;22;19915;-94
2023/02/25 16:22:18;;;;;;;;;;;;;;;;;;6262631;22;19914;-95
2023/02/25 16:24:52;;;;;;;;;;;;;;;;;;6294427;22;20328;-93
2023/02/25 16:30:25;;;;;;;;;;;;;;;;;;6295065;22;19907;-94
2023/02/25 16:32:50;;;;;;;;;;;;;;;;;;6300367;22;19927;-94
2023/02/25 16:48:41;;;;;;;;;;;;;;;;;;6326396;22;19919;-94
2023/02/25 16:51:13;;;;;;;;;;;;;;;;;;6276538;22;19910;-95
2023/02/25 16:56:41;;;;;;;;;;;;;;;;;;6182475;23;19919;-94
2023/02/25 16:59:09;;;;;;;;;;;;;;;;;;6192129;23;19916;-94
2023/02/25 17:01:37;;;;;;;;;;;;;;;;;;6241004;22;19922;-94
2023/02/25 17:04:03;;;;;;;;;;;;;;;;;;6258753;22;19915;-92
2023/02/25 17:06:29;;;;;;;;;;;;;;;;;;6283969;22;20269;-92
2023/02/25 17:08:55;;;;;;;;;;;;;;;;;;6258067;22;20236;-92
2023/02/25 17:11:21;;;;;;;;;;;;;;;;;;6284137;22;19915;-92
2023/02/25 17:13:48;;;;;;;;;;;;;;;;;;6258400;22;19925;-93
2023/02/25 17:16:14;;;;;;;;;;;;;;;;;;6257605;22;20291;-92
2023/02/25 17:18:41;;;;;;;;;;;;;;;;;;6283682;22;19915;-91
2023/02/25 17:21:07;;;;;;;;;;;;;;;;;;6282678;22;19966;-93
2023/02/25 17:23:33;;;;;;;;;;;;;;;;;;6257425;22;19919;-91
2023/02/25 17:25:59;;;;;;;;;;;;;;;;;;6257711;22;19919;-90
2023/02/25 17:28:25;;;;;;;;;;;;;;;;;;6284035;22;19942;-91
2023/02/25 17:30:51;;;;;;;;;;;;;;;;;;6310148;22;19915;-93
2023/02/25 17:33:17;;;;;;;;;;;;;;;;;;6257209;22;19990;-92
2023/02/25 17:35:43;;;;;;;;;;;;;;;;;;6283416;22;20336;-91
2023/02/25 17:38:09;;;;;;;;;;;;;;;;;;6282721;22;20299;-92
2023/02/25 17:40:35;;;;;;;;;;;;;;;;;;6257368;22;19915;-92
2023/02/25 17:43:00;;;;;;;;;;;;;;;;;;6257558;22;19926;-92
2023/02/25 17:45:26;;;;;;;;;;;;;;;;;;6256785;22;20329;-91
2023/02/25 17:47:52;;;;;;;;;;;;;;;;;;6256857;22;19922;-91
2023/02/25 17:50:18;;;;;;;;;;;;;;;;;;6282010;22;20118;-92
2023/02/25 17:52:44;;;;;;;;;;;;;;;;;;6256634;22;20321;-91
2023/02/25 17:55:10;;;;;;;;;;;;;;;;;;6282077;22;19950;-90
2023/02/25 17:57:36;;;;;;;;;;;;;;;;;;6255874;22;20248;-91
2023/02/25 18:00:02;;;;;;;;;;;;;;;;;;6282038;22;19915;-90
2023/02/25 18:02:28;;;;;;;;;;;;;;;;;;6256671;22;20368;-91
2023/02/25 18:04:54;;;;;;;;;;;;;;;;;;6256056;22;19969;-92
2023/02/25 18:07:20;;;;;;;;;;;;;;;;;;6282720;22;19915;-91
2023/02/25 18:09:46;;;;;;;;;;;;;;;;;;6282139;22;19988;-91
2023/02/25 18:12:12;;;;;;;;;;;;;;;;;;6282519;22;19982;-92
2023/02/25 18:14:38;;;;;;;;;;;;;;;;;;6256636;22;19919;-92
2023/02/25 18:17:04;;;;;;;;;;;;;;;;;;6282264;22;20328;-91
2023/02/25 18:19:30;;;;;;;;;;;;;;;;;;6256183;22;19915;-91
2023/02/25 18:21:57;;;;;;;;;;;;;;;;;;6256495;22;19989;-93
2023/02/25 18:24:26;;;;;;;;;;;;;;;;;;6283215;22;19929;-90
2023/02/25 18:26:52;;;;;;;;;;;;;;;;;;6256474;22;19919;-91
2023/02/25 18:29:18;;;;;;;;;;;;;;;;;;6256047;22;20040;-91
2023/02/25 18:31:44;;;;;;;;;;;;;;;;;;6256953;22;19921;-91
2023/02/25 18:34:10;;;;;;;;;;;;;;;;;;6256567;22;19966;-91
2023/02/25 18:36:37;;;;;;;;;;;;;;;;;;6255963;22;19916;-90
2023/02/25 18:39:03;;;;;;;;;;;;;;;;;;6282065;22;19915;-91
2023/02/25 18:41:29;;;;;;;;;;;;;;;;;;6281770;22;19925;-92
2023/02/25 18:43:55;;;;;;;;;;;;;;;;;;6256912;22;19955;-92
2023/02/25 18:46:21;;;;;;;;;;;;;;;;;;6282312;22;19922;-91
2023/02/25 18:48:47;;;;;;;;;;;;;;;;;;6256238;22;19915;-92
2023/02/25 18:51:13;;;;;;;;;;;;;;;;;;6282488;22;19915;-91
2023/02/25 18:53:39;;;;;;;;;;;;;;;;;;6256448;22;19930;-93
2023/02/25 18:56:06;;;;;;;;;;;;;;;;;;6257127;22;19953;-93
2023/02/25 18:58:35;;;;;;;;;;;;;;;;;;6309087;22;20343;-94
2023/02/25 19:01:01;;;;;;;;;;;;;;;;;;6256527;22;19982;-92
2023/02/25 19:03:27;;;;;;;;;;;;;;;;;;6282033;22;20248;-91
2023/02/25 19:05:53;;;;;;;;;;;;;;;;;;6282512;22;19963;-92
2023/02/25 19:08:19;;;;;;;;;;;;;;;;;;6256329;22;19964;-92
2023/02/25 19:10:45;;;;;;;;;;;;;;;;;;6255926;22;19918;-91
2023/02/25 19:13:11;;;;;;;;;;;;;;;;;;6281260;22;19938;-92
2023/02/25 19:15:37;;;;;;;;;;;;;;;;;;6281914;22;19915;-90
2023/02/25 19:18:03;;;;;;;;;;;;;;;;;;6280553;22;19968;-91
2023/02/25 19:20:29;;;;;;;;;;;;;;;;;;6255476;22;20328;-92
2023/02/25 19:22:55;;;;;;;;;;;;;;;;;;6254818;22;19915;-88
2023/02/25 19:25:21;;;;;;;;;;;;;;;;;;6254714;22;19919;-89
2023/02/25 19:27:46;;;;;;;;;;;;;;;;;;6255164;22;19957;-92
2023/02/25 19:30:13;;;;;;;;;;;;;;;;;;6255967;22;19986;-94
2023/02/25 19:32:39;;;;;;;;;;;;;;;;;;6257017;22;19926;-91
2023/02/25 19:35:06;;;;;;;;;;;;;;;;;;6255546;22;19962;-94
2023/02/25 19:37:33;;;;;;;;;;;;;;;;;;6282017;22;19919;-88
2023/02/25 19:39:59;;;;;;;;;;;;;;;;;;6254606;22;19998;-90
2023/02/25 19:42:25;;;;;;;;;;;;;;;;;;6280927;22;19915;-89
2023/02/25 19:44:51;;;;;;;;;;;;;;;;;;6254906;22;19915;-90
2023/02/25 19:47:17;;;;;;;;;;;;;;;;;;6307970;22;20393;-90
2023/02/25 19:49:43;;;;;;;;;;;;;;;;;;6255333;22;20415;-90
2023/02/25 19:52:09;;;;;;;;;;;;;;;;;;6255478;22;19962;-91
2023/02/25 19:54:34;;;;;;;;;;;;;;;;;;6308550;22;20325;-90
2023/02/25 19:57:00;;;;;;;;;;;;;;;;;;6280695;22;20358;-91
2023/02/25 19:59:26;;;;;;;;;;;;;;;;;;6308602;22;20132;-91
2023/02/25 20:01:52;;;;;;;;;;;;;;;;;;6280280;22;19939;-90
2023/02/25 20:04:18;;;;;;;;;;;;;;;;;;6308538;22;20243;-91
2023/02/25 20:06:44;;;;;;;;;;;;;;;;;;6281218;22;19919;-90
2023/02/25 20:09:10;;;;;;;;;;;;;;;;;;6308256;22;20282;-91
2023/02/25 20:11:36;;;;;;;;;;;;;;;;;;6281077;22;19915;-91
2023/02/25 20:14:02;;;;;;;;;;;;;;;;;;6280657;22;19919;-89
2023/02/25 20:16:28;;;;;;;;;;;;;;;;;;6255299;22;19922;-89
2023/02/25 20:18:57;;;;;;;;;;;;;;;;;;6254844;22;19915;-90
2023/02/25 20:21:23;;;;;;;;;;;;;;;;;;6255310;22;19921;-89
2023/02/25 20:23:49;;;;;;;;;;;;;;;;;;6280683;22;19919;-91
2023/02/25 20:26:17;;;;;;;;;;;;;;;;;;6255423;22;20247;-93
2023/02/25 20:28:43;;;;;;;;;;;;;;;;;;6281796;22;19915;-93
2023/02/25 20:31:09;;;;;;;;;;;;;;;;;;6256542;22;19926;-92
2023/02/25 20:33:35;;;;;;;;;;;;;;;;;;6309036;22;20036;-94
2023/02/25 20:36:01;;;;;;;;;;;;;;;;;;6256618;22;19914;-93
2023/02/25 20:38:27;;;;;;;;;;;;;;;;;;6281602;22;19919;-92
2023/02/25 20:40:53;;;;;;;;;;;;;;;;;;6256236;22;19969;-91
2023/02/25 20:43:19;;;;;;;;;;;;;;;;;;6277653;22;19919;-91
2023/02/25 20:45:45;;;;;;;;;;;;;;;;;;6281126;22;20370;-90
2023/02/25 20:48:11;;;;;;;;;;;;;;;;;;6307459;22;19980;-90
2023/02/25 20:50:37;;;;;;;;;;;;;;;;;;6280981;22;19921;-90
2023/02/25 20:53:03;;;;;;;;;;;;;;;;;;6255602;22;19915;-91
2023/02/25 20:55:29;;;;;;;;;;;;;;;;;;6255817;22;19984;-94
2023/02/25 20:57:55;;;;;;;;;;;;;;;;;;6255701;22;19915;-92
2023/02/25 21:00:21;;;;;;;;;;;;;;;;;;6255755;22;19922;-92
2023/02/25 21:02:47;;;;;;;;;;;;;;;;;;6255834;22;19919;-92
2023/02/25 21:05:13;;;;;;;;;;;;;;;;;;6255287;22;19915;-93
2023/02/25 21:07:40;;;;;;;;;;;;;;;;;;6308590;22;19925;-92
2023/02/25 21:10:06;;;;;;;;;;;;;;;;;;6255571;22;19914;-92
2023/02/25 21:12:32;;;;;;;;;;;;;;;;;;6255749;22;20032;-91
2023/02/25 21:14:58;;;;;;;;;;;;;;;;;;6281265;22;19919;-91
2023/02/25 21:17:24;;;;;;;;;;;;;;;;;;6255658;22;19957;-92
2023/02/25 21:19:52;;;;;;;;;;;;;;;;;;6255930;22;19969;-94
2023/02/25 21:22:18;;;;;;;;;;;;;;;;;;6255935;22;19947;-92
2023/02/25 21:24:44;;;;;;;;;;;;;;;;;;6281745;22;20351;-93
2023/02/25 21:27:10;;;;;;;;;;;;;;;;;;6283152;22;19915;-94
2023/02/25 21:32:41;;;;;;;;;;;;;;;;;;6184599;23;19916;-92
2023/02/25 21:35:07;;;;;;;;;;;;;;;;;;6134389;23;20327;-94
2023/02/25 21:37:33;;;;;;;;;;;;;;;;;;6192202;22;19915;-93
2023/02/25 21:39:59;;;;;;;;;;;;;;;;;;6309059;22;19926;-93
2023/02/25 21:42:25;;;;;;;;;;;;;;;;;;6310910;22;19915;-94
2023/02/25 21:44:51;;;;;;;;;;;;;;;;;;6310795;22;19914;-94
2023/02/25 21:47:17;;;;;;;;;;;;;;;;;;6284022;22;19919;-94
2023/02/25 21:49:43;;;;;;;;;;;;;;;;;;6283694;22;19915;-93
2023/02/25 21:52:09;;;;;;;;;;;;;;;;;;6259007;22;19918;-94
2023/02/25 21:54:35;;;;;;;;;;;;;;;;;;6284548;22;19919;-93
2023/02/25 21:57:01;;;;;;;;;;;;;;;;;;6258730;22;20388;-94
2023/02/25 21:59:27;;;;;;;;;;;;;;;;;;6284044;22;19915;-94
2023/02/25 22:01:53;;;;;;;;;;;;;;;;;;6258861;22;19915;-92
2023/02/25 22:04:19;;;;;;;;;;;;;;;;;;6284520;22;19941;-93
2023/02/25 22:06:47;;;;;;;;;;;;;;;;;;6283599;22;19942;-93
2023/02/25 22:09:13;;;;;;;;;;;;;;;;;;6257947;22;20324;-94
2023/02/25 22:11:39;;;;;;;;;;;;;;;;;;6283472;22;19919;-94
2023/02/25 22:14:05;;;;;;;;;;;;;;;;;;6282695;22;19958;-94
2023/02/25 22:16:31;;;;;;;;;;;;;;;;;;6283627;22;19939;-94
2023/02/25 22:18:57;;;;;;;;;;;;;;;;;;6257838;22;19915;-93
2023/02/25 22:21:23;;;;;;;;;;;;;;;;;;6258018;22;19915;-94